sensor_id;sensor_type;location;lat;lon;timestamp;temperature;humidity
51559;DHT22;61650;48.882;2.092;2023-08-01T00:00:39;18.00;99.90
51559;DHT22;61650;48.882;2.092;2023-08-01T00:03:05;18.10;99.90
51559;DHT22;61650;48.882;2.092;2023-08-01T00:05:31;18.10;99.90
51559;DHT22;61650;48.882;2.092;2023-08-01T00:07:56;18.10;99.90
51559;DHT22;61650;48.882;2.092;2023-08-01T00:10:22;18.10;99.90
51559;DHT22;61650;48.882;2.092;2023-08-01T00:12:47;18.10;99.90
51559;DHT22;61650;48.882;2.092;2023-08-01T00:15:13;18.10;99.90
51559;DHT22;61650;48.882;2.092;2023-08-01T00:17:39;18.00;99.90
51559;DHT22;61650;48.882;2.092;2023-08-01T00:20:05;18.00;99.90
51559;DHT22;61650;48.882;2.092;2023-08-01T00:22:31;18.10;99.90
51559;DHT22;61650;48.882;2.092;2023-08-01T00:24:57;18.10;99.90
51559;DHT22;61650;48.882;2.092;2023-08-01T00:27:24;18.00;99.90
51559;DHT22;61650;48.882;2.092;2023-08-01T00:29:49;18.10;99.90
51559;DHT22;61650;48.882;2.092;2023-08-01T00:32:15;18.00;99.90
51559;DHT22;61650;48.882;2.092;2023-08-01T00:34:40;18.00;99.90
51559;DHT22;61650;48.882;2.092;2023-08-01T00:37:06;18.00;99.90
51559;DHT22;61650;48.882;2.092;2023-08-01T00:39:32;18.00;99.90
51559;DHT22;61650;48.882;2.092;2023-08-01T00:41:58;18.00;99.90
51559;DHT22;61650;48.882;2.092;2023-08-01T00:44:24;18.00;99.90
51559;DHT22;61650;48.882;2.092;2023-08-01T00:46:49;17.90;99.90
51559;DHT22;61650;48.882;2.092;2023-08-01T00:49:15;18.00;99.90
51559;DHT22;61650;48.882;2.092;2023-08-01T00:51:42;18.00;99.90
51559;DHT22;61650;48.882;2.092;2023-08-01T00:54:08;18.00;99.90
51559;DHT22;61650;48.882;2.092;2023-08-01T00:56:34;18.00;99.90
51559;DHT22;61650;48.882;2.092;2023-08-01T00:59:00;18.00;99.90
51559;DHT22;61650;48.882;2.092;2023-08-01T01:01:26;18.00;99.90
51559;DHT22;61650;48.882;2.092;2023-08-01T01:03:52;18.00;99.90
51559;DHT22;61650;48.882;2.092;2023-08-01T01:06:25;18.00;99.90
51559;DHT22;61650;48.882;2.092;2023-08-01T01:08:53;18.00;99.90
51559;DHT22;61650;48.882;2.092;2023-08-01T01:11:20;18.00;99.90
51559;DHT22;61650;48.882;2.092;2023-08-01T01:13:46;18.00;99.90
51559;DHT22;61650;48.882;2.092;2023-08-01T01:16:12;18.00;99.90
51559;DHT22;61650;48.882;2.092;2023-08-01T01:18:37;17.90;99.90
51559;DHT22;61650;48.882;2.092;2023-08-01T01:21:03;17.70;99.90
51559;DHT22;61650;48.882;2.092;2023-08-01T01:23:30;17.50;99.90
51559;DHT22;61650;48.882;2.092;2023-08-01T01:25:57;17.30;99.90
51559;DHT22;61650;48.882;2.092;2023-08-01T01:28:23;17.20;99.90
51559;DHT22;61650;48.882;2.092;2023-08-01T01:30:51;17.10;99.90
51559;DHT22;61650;48.882;2.092;2023-08-01T01:33:18;17.00;99.90
51559;DHT22;61650;48.882;2.092;2023-08-01T01:35:44;17.00;99.90
51559;DHT22;61650;48.882;2.092;2023-08-01T01:38:10;17.00;99.90
51559;DHT22;61650;48.882;2.092;2023-08-01T01:40:36;16.90;99.90
51559;DHT22;61650;48.882;2.092;2023-08-01T01:43:01;16.90;99.90
51559;DHT22;61650;48.882;2.092;2023-08-01T01:45:27;16.90;99.90
51559;DHT22;61650;48.882;2.092;2023-08-01T01:47:53;16.90;99.90
51559;DHT22;61650;48.882;2.092;2023-08-01T01:50:19;16.90;99.90
51559;DHT22;61650;48.882;2.092;2023-08-01T01:52:45;16.90;99.90
51559;DHT22;61650;48.882;2.092;2023-08-01T01:55:11;16.90;99.90
51559;DHT22;61650;48.882;2.092;2023-08-01T01:57:36;16.90;99.90
51559;DHT22;61650;48.882;2.092;2023-08-01T02:00:06;16.90;99.90
51559;DHT22;61650;48.882;2.092;2023-08-01T02:02:35;16.90;99.90
51559;DHT22;61650;48.882;2.092;2023-08-01T02:05:01;16.90;99.90
51559;DHT22;61650;48.882;2.092;2023-08-01T02:07:27;16.80;99.90
51559;DHT22;61650;48.882;2.092;2023-08-01T02:09:52;16.80;99.90
51559;DHT22;61650;48.882;2.092;2023-08-01T02:12:18;16.90;99.90
51559;DHT22;61650;48.882;2.092;2023-08-01T02:14:43;16.80;99.90
51559;DHT22;61650;48.882;2.092;2023-08-01T02:17:09;16.60;99.90
51559;DHT22;61650;48.882;2.092;2023-08-01T02:19:35;16.60;99.90
51559;DHT22;61650;48.882;2.092;2023-08-01T02:22:00;16.50;99.90
51559;DHT22;61650;48.882;2.092;2023-08-01T02:24:42;16.40;99.90
51559;DHT22;61650;48.882;2.092;2023-08-01T02:27:07;16.40;99.90
51559;DHT22;61650;48.882;2.092;2023-08-01T02:29:33;16.30;99.90
51559;DHT22;61650;48.882;2.092;2023-08-01T02:31:59;16.30;99.90
51559;DHT22;61650;48.882;2.092;2023-08-01T02:34:28;16.20;99.90
51559;DHT22;61650;48.882;2.092;2023-08-01T02:36:53;16.20;99.90
51559;DHT22;61650;48.882;2.092;2023-08-01T02:39:19;16.20;99.90
51559;DHT22;61650;48.882;2.092;2023-08-01T02:41:45;16.20;99.90
51559;DHT22;61650;48.882;2.092;2023-08-01T02:44:16;16.10;99.90
51559;DHT22;61650;48.882;2.092;2023-08-01T02:46:42;16.10;99.90
51559;DHT22;61650;48.882;2.092;2023-08-01T02:49:07;16.00;99.90
51559;DHT22;61650;48.882;2.092;2023-08-01T02:51:33;16.00;99.90
51559;DHT22;61650;48.882;2.092;2023-08-01T02:53:59;15.90;99.90
51559;DHT22;61650;48.882;2.092;2023-08-01T02:56:24;15.90;99.90
51559;DHT22;61650;48.882;2.092;2023-08-01T02:58:50;15.90;99.90
51559;DHT22;61650;48.882;2.092;2023-08-01T03:01:17;15.90;99.90
51559;DHT22;61650;48.882;2.092;2023-08-01T03:03:43;15.80;99.90
51559;DHT22;61650;48.882;2.092;2023-08-01T03:06:08;15.70;99.90
51559;DHT22;61650;48.882;2.092;2023-08-01T03:08:34;15.70;99.90
51559;DHT22;61650;48.882;2.092;2023-08-01T03:11:03;15.70;99.90
51559;DHT22;61650;48.882;2.092;2023-08-01T03:13:28;15.70;99.90
51559;DHT22;61650;48.882;2.092;2023-08-01T03:15:54;15.70;99.90
51559;DHT22;61650;48.882;2.092;2023-08-01T03:18:19;15.70;99.90
51559;DHT22;61650;48.882;2.092;2023-08-01T03:20:45;15.70;99.90
51559;DHT22;61650;48.882;2.092;2023-08-01T03:23:11;15.60;99.90
51559;DHT22;61650;48.882;2.092;2023-08-01T03:25:36;15.60;99.90
51559;DHT22;61650;48.882;2.092;2023-08-01T03:28:03;15.60;99.90
51559;DHT22;61650;48.882;2.092;2023-08-01T03:30:29;15.60;99.90
51559;DHT22;61650;48.882;2.092;2023-08-01T03:32:54;15.60;99.90
51559;DHT22;61650;48.882;2.092;2023-08-01T03:35:23;15.50;99.90
51559;DHT22;61650;48.882;2.092;2023-08-01T03:37:49;15.50;99.90
51559;DHT22;61650;48.882;2.092;2023-08-01T03:40:15;15.50;99.90
51559;DHT22;61650;48.882;2.092;2023-08-01T03:42:40;15.40;99.90
51559;DHT22;61650;48.882;2.092;2023-08-01T03:45:07;15.40;99.90
51559;DHT22;61650;48.882;2.092;2023-08-01T03:47:32;15.40;99.90
51559;DHT22;61650;48.882;2.092;2023-08-01T03:49:58;15.40;99.90
51559;DHT22;61650;48.882;2.092;2023-08-01T03:52:24;15.40;99.90
51559;DHT22;61650;48.882;2.092;2023-08-01T03:54:53;15.30;99.90
51559;DHT22;61650;48.882;2.092;2023-08-01T03:57:19;15.20;99.90
51559;DHT22;61650;48.882;2.092;2023-08-01T03:59:46;15.30;99.90
51559;DHT22;61650;48.882;2.092;2023-08-01T04:02:11;15.20;99.90
51559;DHT22;61650;48.882;2.092;2023-08-01T04:04:37;15.10;99.90
51559;DHT22;61650;48.882;2.092;2023-08-01T04:07:03;15.20;99.90
51559;DHT22;61650;48.882;2.092;2023-08-01T04:09:29;15.10;99.90
51559;DHT22;61650;48.882;2.092;2023-08-01T04:11:54;15.10;99.90
51559;DHT22;61650;48.882;2.092;2023-08-01T04:14:20;15.00;99.90
51559;DHT22;61650;48.882;2.092;2023-08-01T04:16:45;15.00;99.90
51559;DHT22;61650;48.882;2.092;2023-08-01T04:19:11;15.00;99.90
51559;DHT22;61650;48.882;2.092;2023-08-01T04:21:36;14.90;99.90
51559;DHT22;61650;48.882;2.092;2023-08-01T04:24:02;15.00;99.90
51559;DHT22;61650;48.882;2.092;2023-08-01T04:26:28;15.00;99.90
51559;DHT22;61650;48.882;2.092;2023-08-01T04:28:53;14.90;99.90
51559;DHT22;61650;48.882;2.092;2023-08-01T04:31:19;14.90;99.90
51559;DHT22;61650;48.882;2.092;2023-08-01T04:33:44;14.80;99.90
51559;DHT22;61650;48.882;2.092;2023-08-01T04:36:10;14.80;99.90
51559;DHT22;61650;48.882;2.092;2023-08-01T04:38:36;14.80;99.90
51559;DHT22;61650;48.882;2.092;2023-08-01T04:41:01;14.70;99.90
51559;DHT22;61650;48.882;2.092;2023-08-01T04:43:28;14.70;99.90
51559;DHT22;61650;48.882;2.092;2023-08-01T04:45:53;14.70;99.90
51559;DHT22;61650;48.882;2.092;2023-08-01T04:48:19;14.70;99.90
51559;DHT22;61650;48.882;2.092;2023-08-01T04:50:45;14.70;99.90
51559;DHT22;61650;48.882;2.092;2023-08-01T04:53:10;14.50;99.90
51559;DHT22;61650;48.882;2.092;2023-08-01T04:55:36;14.50;99.90
51559;DHT22;61650;48.882;2.092;2023-08-01T04:58:02;14.50;99.90
51559;DHT22;61650;48.882;2.092;2023-08-01T05:00:28;14.40;99.90
51559;DHT22;61650;48.882;2.092;2023-08-01T05:02:53;14.40;99.90
51559;DHT22;61650;48.882;2.092;2023-08-01T05:05:19;14.40;99.90
51559;DHT22;61650;48.882;2.092;2023-08-01T05:07:44;14.40;99.90
51559;DHT22;61650;48.882;2.092;2023-08-01T05:10:10;14.50;99.90
51559;DHT22;61650;48.882;2.092;2023-08-01T05:12:36;14.40;99.90
51559;DHT22;61650;48.882;2.092;2023-08-01T05:15:01;14.40;99.90
51559;DHT22;61650;48.882;2.092;2023-08-01T05:17:27;14.40;99.90
51559;DHT22;61650;48.882;2.092;2023-08-01T05:19:53;14.40;99.90
51559;DHT22;61650;48.882;2.092;2023-08-01T05:22:20;14.40;99.90
51559;DHT22;61650;48.882;2.092;2023-08-01T05:24:46;14.40;99.90
51559;DHT22;61650;48.882;2.092;2023-08-01T05:27:12;14.40;99.90
51559;DHT22;61650;48.882;2.092;2023-08-01T05:29:37;14.40;99.90
51559;DHT22;61650;48.882;2.092;2023-08-01T05:32:03;14.40;99.90
51559;DHT22;61650;48.882;2.092;2023-08-01T05:34:29;14.40;99.90
51559;DHT22;61650;48.882;2.092;2023-08-01T05:36:55;14.40;99.90
51559;DHT22;61650;48.882;2.092;2023-08-01T05:39:20;14.40;99.90
51559;DHT22;61650;48.882;2.092;2023-08-01T05:41:46;14.50;99.90
51559;DHT22;61650;48.882;2.092;2023-08-01T05:44:11;14.60;99.90
51559;DHT22;61650;48.882;2.092;2023-08-01T05:46:37;14.60;99.90
51559;DHT22;61650;48.882;2.092;2023-08-01T05:49:03;14.70;99.90
51559;DHT22;61650;48.882;2.092;2023-08-01T05:51:28;14.70;99.90
51559;DHT22;61650;48.882;2.092;2023-08-01T05:53:54;14.80;99.90
51559;DHT22;61650;48.882;2.092;2023-08-01T05:56:19;14.80;99.90
51559;DHT22;61650;48.882;2.092;2023-08-01T05:58:45;14.80;99.90
51559;DHT22;61650;48.882;2.092;2023-08-01T06:01:11;14.80;99.90
51559;DHT22;61650;48.882;2.092;2023-08-01T06:03:37;14.80;99.90
51559;DHT22;61650;48.882;2.092;2023-08-01T06:06:03;14.80;99.90
51559;DHT22;61650;48.882;2.092;2023-08-01T06:08:29;14.90;99.90
51559;DHT22;61650;48.882;2.092;2023-08-01T06:10:55;15.00;99.90
51559;DHT22;61650;48.882;2.092;2023-08-01T06:13:20;15.00;99.90
51559;DHT22;61650;48.882;2.092;2023-08-01T06:15:46;15.10;99.90
51559;DHT22;61650;48.882;2.092;2023-08-01T06:18:12;15.10;99.90
51559;DHT22;61650;48.882;2.092;2023-08-01T06:20:38;15.10;99.90
51559;DHT22;61650;48.882;2.092;2023-08-01T06:23:03;15.10;99.90
51559;DHT22;61650;48.882;2.092;2023-08-01T06:25:29;15.20;99.90
51559;DHT22;61650;48.882;2.092;2023-08-01T06:27:54;15.20;99.90
51559;DHT22;61650;48.882;2.092;2023-08-01T06:30:20;15.30;99.90
51559;DHT22;61650;48.882;2.092;2023-08-01T06:32:45;15.20;99.90
51559;DHT22;61650;48.882;2.092;2023-08-01T06:35:11;15.20;99.90
51559;DHT22;61650;48.882;2.092;2023-08-01T06:37:37;15.30;99.90
51559;DHT22;61650;48.882;2.092;2023-08-01T06:40:02;15.40;99.90
51559;DHT22;61650;48.882;2.092;2023-08-01T06:42:29;15.40;99.90
51559;DHT22;61650;48.882;2.092;2023-08-01T06:44:55;15.50;99.90
51559;DHT22;61650;48.882;2.092;2023-08-01T06:47:20;15.60;99.90
51559;DHT22;61650;48.882;2.092;2023-08-01T06:49:46;15.60;99.90
51559;DHT22;61650;48.882;2.092;2023-08-01T06:52:12;15.70;99.90
51559;DHT22;61650;48.882;2.092;2023-08-01T06:54:37;15.70;99.90
51559;DHT22;61650;48.882;2.092;2023-08-01T06:57:03;15.80;99.90
51559;DHT22;61650;48.882;2.092;2023-08-01T06:59:29;15.80;99.10
51559;DHT22;61650;48.882;2.092;2023-08-01T07:01:55;15.80;99.90
51559;DHT22;61650;48.882;2.092;2023-08-01T07:04:21;15.80;95.40
51559;DHT22;61650;48.882;2.092;2023-08-01T07:06:46;15.90;99.00
51559;DHT22;61650;48.882;2.092;2023-08-01T07:09:12;15.90;96.50
51559;DHT22;61650;48.882;2.092;2023-08-01T07:11:37;15.80;93.80
51559;DHT22;61650;48.882;2.092;2023-08-01T07:14:03;15.80;93.40
51559;DHT22;61650;48.882;2.092;2023-08-01T07:16:29;15.90;95.30
51559;DHT22;61650;48.882;2.092;2023-08-01T07:18:55;16.00;95.50
51559;DHT22;61650;48.882;2.092;2023-08-01T07:21:23;16.10;93.60
51559;DHT22;61650;48.882;2.092;2023-08-01T07:23:49;16.30;95.60
51559;DHT22;61650;48.882;2.092;2023-08-01T07:26:15;16.30;92.70
51559;DHT22;61650;48.882;2.092;2023-08-01T07:28:41;16.40;94.40
51559;DHT22;61650;48.882;2.092;2023-08-01T07:31:07;16.40;94.00
51559;DHT22;61650;48.882;2.092;2023-08-01T07:33:36;16.40;91.50
51559;DHT22;61650;48.882;2.092;2023-08-01T07:36:03;16.50;94.10
51559;DHT22;61650;48.882;2.092;2023-08-01T07:38:41;16.50;91.10
51559;DHT22;61650;48.882;2.092;2023-08-01T07:41:06;16.60;96.20
51559;DHT22;61650;48.882;2.092;2023-08-01T07:43:39;16.70;93.10
51559;DHT22;61650;48.882;2.092;2023-08-01T07:46:04;16.60;90.40
51559;DHT22;61650;48.882;2.092;2023-08-01T07:48:32;16.70;91.60
51559;DHT22;61650;48.882;2.092;2023-08-01T07:51:01;16.80;96.70
51559;DHT22;61650;48.882;2.092;2023-08-01T07:53:37;16.80;90.50
51559;DHT22;61650;48.882;2.092;2023-08-01T07:56:03;16.90;92.90
51559;DHT22;61650;48.882;2.092;2023-08-01T07:58:32;16.80;86.80
51559;DHT22;61650;48.882;2.092;2023-08-01T08:01:07;16.70;86.30
51559;DHT22;61650;48.882;2.092;2023-08-01T08:03:35;16.60;88.20
51559;DHT22;61650;48.882;2.092;2023-08-01T08:06:03;16.70;86.80
51559;DHT22;61650;48.882;2.092;2023-08-01T08:08:30;16.80;85.50
51559;DHT22;61650;48.882;2.092;2023-08-01T08:11:02;16.90;86.40
51559;DHT22;61650;48.882;2.092;2023-08-01T08:13:28;17.00;85.80
51559;DHT22;61650;48.882;2.092;2023-08-01T08:15:56;17.20;85.60
51559;DHT22;61650;48.882;2.092;2023-08-01T08:18:22;17.40;89.90
51559;DHT22;61650;48.882;2.092;2023-08-01T08:20:48;17.50;84.60
51559;DHT22;61650;48.882;2.092;2023-08-01T08:23:14;17.40;80.80
51559;DHT22;61650;48.882;2.092;2023-08-01T08:25:40;17.40;83.00
51559;DHT22;61650;48.882;2.092;2023-08-01T08:28:07;17.50;83.30
51559;DHT22;61650;48.882;2.092;2023-08-01T08:30:32;17.60;83.30
51559;DHT22;61650;48.882;2.092;2023-08-01T08:32:58;17.60;83.60
51559;DHT22;61650;48.882;2.092;2023-08-01T08:35:29;17.70;81.30
51559;DHT22;61650;48.882;2.092;2023-08-01T08:37:55;17.80;83.80
51559;DHT22;61650;48.882;2.092;2023-08-01T08:40:21;17.90;82.00
51559;DHT22;61650;48.882;2.092;2023-08-01T08:42:48;18.00;84.40
51559;DHT22;61650;48.882;2.092;2023-08-01T08:45:18;18.20;81.50
51559;DHT22;61650;48.882;2.092;2023-08-01T08:47:44;18.10;81.10
51559;DHT22;61650;48.882;2.092;2023-08-01T08:50:14;18.10;80.50
51559;DHT22;61650;48.882;2.092;2023-08-01T08:52:40;18.10;81.50
51559;DHT22;61650;48.882;2.092;2023-08-01T08:55:06;18.20;82.90
51559;DHT22;61650;48.882;2.092;2023-08-01T08:57:33;18.20;80.10
51559;DHT22;61650;48.882;2.092;2023-08-01T09:00:00;18.20;77.30
51559;DHT22;61650;48.882;2.092;2023-08-01T09:02:30;18.30;77.50
51559;DHT22;61650;48.882;2.092;2023-08-01T09:04:57;18.30;78.60
51559;DHT22;61650;48.882;2.092;2023-08-01T09:07:24;18.30;78.30
51559;DHT22;61650;48.882;2.092;2023-08-01T09:09:52;18.30;77.80
51559;DHT22;61650;48.882;2.092;2023-08-01T09:12:18;18.20;76.60
51559;DHT22;61650;48.882;2.092;2023-08-01T09:14:43;18.20;76.10
51559;DHT22;61650;48.882;2.092;2023-08-01T09:17:13;18.30;76.70
51559;DHT22;61650;48.882;2.092;2023-08-01T09:19:41;18.50;76.60
51559;DHT22;61650;48.882;2.092;2023-08-01T09:22:16;18.60;75.60
51559;DHT22;61650;48.882;2.092;2023-08-01T09:24:52;18.80;73.20
51559;DHT22;61650;48.882;2.092;2023-08-01T09:27:18;19.00;73.30
51559;DHT22;61650;48.882;2.092;2023-08-01T09:29:45;19.00;71.10
51559;DHT22;61650;48.882;2.092;2023-08-01T09:32:17;19.10;73.70
51559;DHT22;61650;48.882;2.092;2023-08-01T09:34:44;19.20;77.60
51559;DHT22;61650;48.882;2.092;2023-08-01T09:37:09;19.30;72.50
51559;DHT22;61650;48.882;2.092;2023-08-01T09:39:35;19.20;71.70
51559;DHT22;61650;48.882;2.092;2023-08-01T09:42:02;19.30;73.60
51559;DHT22;61650;48.882;2.092;2023-08-01T09:44:29;19.30;71.30
51559;DHT22;61650;48.882;2.092;2023-08-01T09:46:59;19.30;73.20
51559;DHT22;61650;48.882;2.092;2023-08-01T09:49:26;19.20;75.00
51559;DHT22;61650;48.882;2.092;2023-08-01T09:51:52;19.10;71.70
51559;DHT22;61650;48.882;2.092;2023-08-01T09:54:18;19.00;74.90
51559;DHT22;61650;48.882;2.092;2023-08-01T09:56:45;19.00;73.00
51559;DHT22;61650;48.882;2.092;2023-08-01T09:59:11;18.90;72.90
51559;DHT22;61650;48.882;2.092;2023-08-01T10:01:38;18.90;71.30
51559;DHT22;61650;48.882;2.092;2023-08-01T10:04:04;18.90;71.60
51559;DHT22;61650;48.882;2.092;2023-08-01T10:06:33;19.00;72.40
51559;DHT22;61650;48.882;2.092;2023-08-01T10:09:00;19.30;71.60
51559;DHT22;61650;48.882;2.092;2023-08-01T10:11:27;19.50;71.00
51559;DHT22;61650;48.882;2.092;2023-08-01T10:13:54;19.70;67.90
51559;DHT22;61650;48.882;2.092;2023-08-01T10:16:21;19.70;69.20
51559;DHT22;61650;48.882;2.092;2023-08-01T10:18:47;19.70;70.30
51559;DHT22;61650;48.882;2.092;2023-08-01T10:21:16;19.60;68.80
51559;DHT22;61650;48.882;2.092;2023-08-01T10:23:43;19.60;69.50
51559;DHT22;61650;48.882;2.092;2023-08-01T10:26:10;19.60;69.70
51559;DHT22;61650;48.882;2.092;2023-08-01T10:28:38;19.60;67.40
51559;DHT22;61650;48.882;2.092;2023-08-01T10:31:16;19.50;68.10
51559;DHT22;61650;48.882;2.092;2023-08-01T10:33:44;19.50;68.70
51559;DHT22;61650;48.882;2.092;2023-08-01T10:36:23;19.60;68.90
51559;DHT22;61650;48.882;2.092;2023-08-01T10:38:50;20.10;65.20
51559;DHT22;61650;48.882;2.092;2023-08-01T10:41:25;20.20;65.00
51559;DHT22;61650;48.882;2.092;2023-08-01T10:43:51;20.30;67.20
51559;DHT22;61650;48.882;2.092;2023-08-01T10:46:17;20.30;68.50
51559;DHT22;61650;48.882;2.092;2023-08-01T10:48:50;20.30;63.80
51559;DHT22;61650;48.882;2.092;2023-08-01T10:51:16;20.30;68.00
51559;DHT22;61650;48.882;2.092;2023-08-01T10:53:42;20.30;66.00
51559;DHT22;61650;48.882;2.092;2023-08-01T10:56:14;20.50;69.10
51559;DHT22;61650;48.882;2.092;2023-08-01T10:58:40;20.60;64.80
51559;DHT22;61650;48.882;2.092;2023-08-01T11:01:06;20.70;65.60
51559;DHT22;61650;48.882;2.092;2023-08-01T11:03:39;20.80;63.00
51559;DHT22;61650;48.882;2.092;2023-08-01T11:06:05;20.90;66.70
51559;DHT22;61650;48.882;2.092;2023-08-01T11:08:38;21.00;64.10
51559;DHT22;61650;48.882;2.092;2023-08-01T11:11:05;20.90;63.10
51559;DHT22;61650;48.882;2.092;2023-08-01T11:13:32;20.70;61.40
51559;DHT22;61650;48.882;2.092;2023-08-01T11:16:01;20.70;65.00
51559;DHT22;61650;48.882;2.092;2023-08-01T11:18:28;20.70;65.30
51559;DHT22;61650;48.882;2.092;2023-08-01T11:20:53;20.90;64.80
51559;DHT22;61650;48.882;2.092;2023-08-01T11:23:19;21.00;67.30
51559;DHT22;61650;48.882;2.092;2023-08-01T11:25:52;21.10;65.00
51559;DHT22;61650;48.882;2.092;2023-08-01T11:28:20;21.30;61.30
51559;DHT22;61650;48.882;2.092;2023-08-01T11:30:45;21.40;62.20
51559;DHT22;61650;48.882;2.092;2023-08-01T11:33:18;21.50;63.00
51559;DHT22;61650;48.882;2.092;2023-08-01T11:35:46;21.40;61.80
51559;DHT22;61650;48.882;2.092;2023-08-01T11:38:12;21.40;59.50
51559;DHT22;61650;48.882;2.092;2023-08-01T11:40:38;21.30;58.90
51559;DHT22;61650;48.882;2.092;2023-08-01T11:43:04;21.20;63.00
51559;DHT22;61650;48.882;2.092;2023-08-01T11:45:30;21.10;61.00
51559;DHT22;61650;48.882;2.092;2023-08-01T11:47:55;20.90;61.70
51559;DHT22;61650;48.882;2.092;2023-08-01T11:50:23;20.80;62.00
51559;DHT22;61650;48.882;2.092;2023-08-01T11:52:48;20.80;62.50
51559;DHT22;61650;48.882;2.092;2023-08-01T11:55:30;21.00;64.10
51559;DHT22;61650;48.882;2.092;2023-08-01T11:58:00;21.20;61.00
51559;DHT22;61650;48.882;2.092;2023-08-01T12:00:27;21.30;59.90
51559;DHT22;61650;48.882;2.092;2023-08-01T12:03:10;21.50;61.70
51559;DHT22;61650;48.882;2.092;2023-08-01T12:05:42;21.90;62.90
51559;DHT22;61650;48.882;2.092;2023-08-01T12:08:14;22.00;60.70
51559;DHT22;61650;48.882;2.092;2023-08-01T12:10:41;22.00;59.50
51559;DHT22;61650;48.882;2.092;2023-08-01T12:13:18;22.10;60.00
51559;DHT22;61650;48.882;2.092;2023-08-01T12:15:44;22.20;61.10
51559;DHT22;61650;48.882;2.092;2023-08-01T12:18:09;22.10;58.50
51559;DHT22;61650;48.882;2.092;2023-08-01T12:20:35;21.80;59.70
51559;DHT22;61650;48.882;2.092;2023-08-01T12:23:00;21.60;62.60
51559;DHT22;61650;48.882;2.092;2023-08-01T12:25:26;21.80;61.70
51559;DHT22;61650;48.882;2.092;2023-08-01T12:27:51;21.90;62.30
51559;DHT22;61650;48.882;2.092;2023-08-01T12:30:17;21.90;60.00
51559;DHT22;61650;48.882;2.092;2023-08-01T12:32:43;22.10;58.20
51559;DHT22;61650;48.882;2.092;2023-08-01T12:35:08;22.40;58.20
51559;DHT22;61650;48.882;2.092;2023-08-01T12:37:34;22.20;56.80
51559;DHT22;61650;48.882;2.092;2023-08-01T12:40:00;22.50;57.50
51559;DHT22;61650;48.882;2.092;2023-08-01T12:42:25;23.20;54.60
51559;DHT22;61650;48.882;2.092;2023-08-01T12:44:51;23.50;53.50
51559;DHT22;61650;48.882;2.092;2023-08-01T12:47:16;23.60;55.70
51559;DHT22;61650;48.882;2.092;2023-08-01T12:49:43;23.80;56.00
51559;DHT22;61650;48.882;2.092;2023-08-01T12:52:09;24.20;54.20
51559;DHT22;61650;48.882;2.092;2023-08-01T12:54:34;24.70;54.00
51559;DHT22;61650;48.882;2.092;2023-08-01T12:57:00;24.90;52.50
51559;DHT22;61650;48.882;2.092;2023-08-01T12:59:25;24.00;54.60
51559;DHT22;61650;48.882;2.092;2023-08-01T13:01:51;23.70;56.90
51559;DHT22;61650;48.882;2.092;2023-08-01T13:04:16;23.40;58.80
51559;DHT22;61650;48.882;2.092;2023-08-01T13:06:44;23.00;60.60
51559;DHT22;61650;48.882;2.092;2023-08-01T13:09:09;23.10;59.50
51559;DHT22;61650;48.882;2.092;2023-08-01T13:11:37;23.50;59.10
51559;DHT22;61650;48.882;2.092;2023-08-01T13:14:03;23.40;60.10
51559;DHT22;61650;48.882;2.092;2023-08-01T13:16:30;23.00;62.00
51559;DHT22;61650;48.882;2.092;2023-08-01T13:18:55;22.40;62.10
51559;DHT22;61650;48.882;2.092;2023-08-01T13:21:22;22.10;64.60
51559;DHT22;61650;48.882;2.092;2023-08-01T13:23:48;22.20;63.70
51559;DHT22;61650;48.882;2.092;2023-08-01T13:26:13;23.00;63.30
51559;DHT22;61650;48.882;2.092;2023-08-01T13:28:39;23.30;61.20
51559;DHT22;61650;48.882;2.092;2023-08-01T13:31:04;22.80;60.90
51559;DHT22;61650;48.882;2.092;2023-08-01T13:33:30;22.60;61.50
51559;DHT22;61650;48.882;2.092;2023-08-01T13:35:56;23.20;61.90
51559;DHT22;61650;48.882;2.092;2023-08-01T13:38:23;23.10;59.90
51559;DHT22;61650;48.882;2.092;2023-08-01T13:40:48;22.50;62.30
51559;DHT22;61650;48.882;2.092;2023-08-01T13:43:14;22.10;64.10
51559;DHT22;61650;48.882;2.092;2023-08-01T13:45:39;21.80;64.30
51559;DHT22;61650;48.882;2.092;2023-08-01T13:48:05;21.70;66.30
51559;DHT22;61650;48.882;2.092;2023-08-01T13:50:31;21.70;67.30
51559;DHT22;61650;48.882;2.092;2023-08-01T13:52:56;21.70;67.00
51559;DHT22;61650;48.882;2.092;2023-08-01T13:55:22;21.70;65.10
51559;DHT22;61650;48.882;2.092;2023-08-01T13:57:48;21.70;67.50
51559;DHT22;61650;48.882;2.092;2023-08-01T14:00:13;22.00;66.30
51559;DHT22;61650;48.882;2.092;2023-08-01T14:02:39;22.20;61.90
51559;DHT22;61650;48.882;2.092;2023-08-01T14:05:05;22.30;62.20
51559;DHT22;61650;48.882;2.092;2023-08-01T14:07:30;22.10;61.00
51559;DHT22;61650;48.882;2.092;2023-08-01T14:09:56;21.80;62.60
51559;DHT22;61650;48.882;2.092;2023-08-01T14:12:22;21.70;62.90
51559;DHT22;61650;48.882;2.092;2023-08-01T14:14:49;21.60;63.40
51559;DHT22;61650;48.882;2.092;2023-08-01T14:17:16;21.50;61.90
51559;DHT22;61650;48.882;2.092;2023-08-01T14:19:41;21.50;62.40
51559;DHT22;61650;48.882;2.092;2023-08-01T14:22:07;21.50;62.00
51559;DHT22;61650;48.882;2.092;2023-08-01T14:24:32;21.50;62.20
51559;DHT22;61650;48.882;2.092;2023-08-01T14:26:58;21.50;62.40
51559;DHT22;61650;48.882;2.092;2023-08-01T14:29:23;21.50;61.50
51559;DHT22;61650;48.882;2.092;2023-08-01T14:31:51;21.40;61.80
51559;DHT22;61650;48.882;2.092;2023-08-01T14:34:17;21.40;61.70
51559;DHT22;61650;48.882;2.092;2023-08-01T14:36:42;21.40;63.50
51559;DHT22;61650;48.882;2.092;2023-08-01T14:39:08;21.50;61.00
51559;DHT22;61650;48.882;2.092;2023-08-01T14:41:33;21.50;62.80
51559;DHT22;61650;48.882;2.092;2023-08-01T14:43:59;21.40;63.30
51559;DHT22;61650;48.882;2.092;2023-08-01T14:46:24;21.20;64.00
51559;DHT22;61650;48.882;2.092;2023-08-01T14:48:50;20.70;70.50
51559;DHT22;61650;48.882;2.092;2023-08-01T14:51:16;19.90;75.90
51559;DHT22;61650;48.882;2.092;2023-08-01T14:53:42;19.50;79.90
51559;DHT22;61650;48.882;2.092;2023-08-01T14:56:07;19.40;80.30
51559;DHT22;61650;48.882;2.092;2023-08-01T14:58:33;19.30;81.00
51559;DHT22;61650;48.882;2.092;2023-08-01T15:01:05;19.40;82.70
51559;DHT22;61650;48.882;2.092;2023-08-01T15:03:31;19.40;80.90
51559;DHT22;61650;48.882;2.092;2023-08-01T15:05:56;19.70;82.60
51559;DHT22;61650;48.882;2.092;2023-08-01T15:08:29;20.00;77.60
51559;DHT22;61650;48.882;2.092;2023-08-01T15:10:55;20.20;76.80
51559;DHT22;61650;48.882;2.092;2023-08-01T15:13:21;20.20;77.60
51559;DHT22;61650;48.882;2.092;2023-08-01T15:15:46;20.20;78.30
51559;DHT22;61650;48.882;2.092;2023-08-01T15:18:12;20.20;77.10
51559;DHT22;61650;48.882;2.092;2023-08-01T15:20:38;20.10;78.90
51559;DHT22;61650;48.882;2.092;2023-08-01T15:23:06;19.80;82.90
51559;DHT22;61650;48.882;2.092;2023-08-01T15:25:31;19.60;84.30